createdAt,value
2017-12-05T00:00:01.946Z,4.8
2017-12-05T00:05:01.651Z,4.8
2017-12-05T00:10:02.563Z,5.1
2017-12-05T00:15:01.338Z,5.1
2017-12-05T00:20:02.010Z,5.1
2017-12-05T00:25:02.453Z,5.1
2017-12-05T00:30:01.395Z,5.1
2017-12-05T00:35:01.399Z,5.4
2017-12-05T00:40:01.444Z,5.4
2017-12-05T00:45:02.376Z,5.4
2017-12-05T00:50:02.396Z,5.7
2017-12-05T00:55:01.687Z,5.7
2017-12-05T01:00:01.642Z,5.9
2017-12-05T01:05:01.897Z,5.9
2017-12-05T01:10:02.025Z,5.9
2017-12-05T01:15:02.066Z,5.9
2017-12-05T01:20:02.772Z,5.9
2017-12-05T01:25:01.624Z,6.4
2017-12-05T01:30:01.417Z,6.5
2017-12-05T01:35:01.293Z,6.5
2017-12-05T01:40:01.721Z,6.6
2017-12-05T01:45:01.570Z,6.6
2017-12-05T01:50:01.386Z,6.6
2017-12-05T01:55:02.435Z,6.6
2017-12-05T02:00:02.164Z,6.6
2017-12-05T02:05:02.155Z,6.6
2017-12-05T02:10:01.966Z,6.6
2017-12-05T02:15:01.716Z,6.6
2017-12-05T02:20:01.440Z,6.6
2017-12-05T02:25:01.402Z,6.6
2017-12-05T02:30:01.559Z,6.8
2017-12-05T02:35:01.285Z,6.8
2017-12-05T02:40:01.223Z,6.8
2017-12-05T02:45:01.974Z,6.8
2017-12-05T02:50:01.638Z,6.8
2017-12-05T02:55:01.678Z,6.8
2017-12-05T03:00:02.385Z,6.8
2017-12-05T03:05:01.157Z,6.8
2017-12-05T03:10:01.287Z,6.8
2017-12-05T03:15:01.914Z,6.8
2017-12-05T03:20:02.333Z,6.8
2017-12-05T03:25:01.668Z,6.8
2017-12-05T03:30:01.432Z,6.8
2017-12-05T03:35:01.860Z,6.8
2017-12-05T03:40:01.708Z,6.8
2017-12-05T03:45:01.417Z,6.8
2017-12-05T03:50:02.133Z,6.8
2017-12-05T03:55:01.571Z,6.8
2017-12-05T04:00:02.021Z,6.8
2017-12-05T04:05:01.536Z,6.8
2017-12-05T04:10:01.568Z,6.8
2017-12-05T04:15:01.947Z,6.9
2017-12-05T04:20:01.692Z,6.9
2017-12-05T04:25:01.284Z,6.9
2017-12-05T04:30:01.944Z,6.9
2017-12-05T04:35:02.082Z,6.9
2017-12-05T04:40:02.117Z,6.9
2017-12-05T04:45:01.406Z,6.9
2017-12-05T04:50:01.768Z,6.9
2017-12-05T04:55:01.671Z,6.9
2017-12-05T05:00:01.774Z,6.9
2017-12-05T05:05:02.493Z,6.9
2017-12-05T05:10:01.346Z,6.9
2017-12-05T05:15:01.370Z,6.9
2017-12-05T05:20:01.196Z,6.9
2017-12-05T05:25:02.297Z,6.9
2017-12-05T05:30:02.147Z,6.9
2017-12-05T05:35:01.331Z,6.9
2017-12-05T05:40:02.668Z,6.9
2017-12-05T05:45:01.236Z,6.9
2017-12-05T05:50:01.193Z,6.9
2017-12-05T05:55:01.875Z,6.9
2017-12-05T06:00:02.121Z,6.9
2017-12-05T06:05:01.710Z,6.9
2017-12-05T06:10:01.570Z,6.9
2017-12-05T06:15:01.779Z,6.9
2017-12-05T06:20:02.366Z,6.9
2017-12-05T06:25:01.856Z,6.9
2017-12-05T06:30:01.239Z,6.9
2017-12-05T06:35:02.024Z,6.9
2017-12-05T06:40:02.253Z,6.9
2017-12-05T06:45:01.936Z,6.9
2017-12-05T06:50:02.005Z,6.9
2017-12-05T06:55:01.406Z,6.9
2017-12-05T07:00:01.621Z,6.9
2017-12-05T07:05:01.311Z,6.9
2017-12-05T07:10:01.304Z,6.9
2017-12-05T07:15:01.894Z,6.9
2017-12-05T07:20:01.573Z,6.9
2017-12-05T07:25:02.126Z,6.9
2017-12-05T07:30:01.284Z,6.9
2017-12-05T07:35:02.548Z,6.9
2017-12-05T07:40:01.522Z,6.9
2017-12-05T07:45:01.982Z,7.3
2017-12-05T07:50:02.554Z,7.3
2017-12-05T07:55:01.578Z,7.3
2017-12-05T08:00:01.780Z,7.3
2017-12-05T08:05:02.393Z,7.3
2017-12-05T08:10:01.939Z,7.2
2017-12-05T08:15:01.741Z,7.2
2017-12-05T08:20:01.732Z,7.2
2017-12-05T08:25:01.852Z,7.2
2017-12-05T08:30:01.954Z,7.2
2017-12-05T08:35:02.003Z,7.2
2017-12-05T08:40:02.341Z,7.2
2017-12-05T08:45:01.854Z,7.2
2017-12-05T08:50:02.033Z,7.2
2017-12-05T08:55:01.215Z,7.3
2017-12-05T09:00:01.548Z,7.3
2017-12-05T09:05:01.650Z,7.4
2017-12-05T09:10:01.893Z,7.4
2017-12-05T09:15:01.537Z,7.3
2017-12-05T09:20:01.282Z,7.3
2017-12-05T09:25:01.349Z,7.3
2017-12-05T09:30:01.830Z,7.3
2017-12-05T09:35:01.372Z,7.3
2017-12-05T09:40:01.213Z,7.3
2017-12-05T09:45:02.665Z,7.3
2017-12-05T09:50:01.284Z,7.3
2017-12-05T09:55:01.557Z,7.3
2017-12-05T10:00:01.375Z,7.3
2017-12-05T10:05:02.449Z,7.3
2017-12-05T10:10:01.727Z,7.3
2017-12-05T10:15:01.189Z,7.3
2017-12-05T10:20:01.788Z,7.3
2017-12-05T10:25:01.934Z,7.5
2017-12-05T10:30:01.680Z,7.5
2017-12-05T10:35:01.709Z,7.5
2017-12-05T10:40:01.792Z,7.5
2017-12-05T10:45:01.423Z,7.5
2017-12-05T10:50:01.897Z,7.9
2017-12-05T10:55:01.538Z,8.1
2017-12-05T11:00:01.920Z,8.1
2017-12-05T11:05:01.883Z,8.4
2017-12-05T11:10:02.365Z,8.4
2017-12-05T11:15:01.573Z,8.6
2017-12-05T11:20:02.468Z,8.6
2017-12-05T11:25:01.673Z,8.6
2017-12-05T11:30:02.498Z,8.6
2017-12-05T11:35:01.942Z,8.6
2017-12-05T11:40:02.329Z,8.6
2017-12-05T11:45:01.630Z,8.6
2017-12-05T11:50:02.139Z,8.6
2017-12-05T11:55:01.356Z,8.6
2017-12-05T12:00:01.592Z,8.6
2017-12-05T12:05:02.572Z,8.6
2017-12-05T12:10:02.377Z,8.6
2017-12-05T12:15:02.018Z,8.6
2017-12-05T12:20:01.422Z,8.6
2017-12-05T12:25:02.482Z,8.6
2017-12-05T12:30:02.111Z,8.6
2017-12-05T12:35:01.363Z,8.6
2017-12-05T12:40:01.613Z,8.6
2017-12-05T12:45:02.367Z,8.6
2017-12-05T12:50:02.017Z,8.6
2017-12-05T12:55:02.307Z,8.6
2017-12-05T13:00:01.430Z,8.5
2017-12-05T13:05:01.990Z,8.5
2017-12-05T13:10:01.483Z,8.5
2017-12-05T13:15:01.718Z,8.5
2017-12-05T13:20:02.221Z,8.5
2017-12-05T13:25:01.957Z,8.5
2017-12-05T13:30:01.824Z,8
2017-12-05T13:35:02.873Z,8
2017-12-05T13:40:01.454Z,8
2017-12-05T13:45:01.556Z,8
2017-12-05T13:50:01.286Z,8
2017-12-05T13:55:01.822Z,8
2017-12-05T14:00:01.588Z,8
2017-12-05T14:05:01.346Z,8
2017-12-05T14:10:02.962Z,8
2017-12-05T14:15:01.586Z,8
2017-12-05T14:20:01.704Z,8
2017-12-05T14:25:01.832Z,8
2017-12-05T14:30:02.160Z,8
2017-12-05T14:35:02.264Z,8
2017-12-05T14:40:01.573Z,8
2017-12-05T14:45:01.813Z,8
2017-12-05T14:50:02.675Z,8
2017-12-05T14:55:01.629Z,8
2017-12-05T15:00:01.714Z,8
2017-12-05T15:05:02.435Z,8
2017-12-05T15:10:02.109Z,8
2017-12-05T15:15:01.871Z,8
2017-12-05T15:20:01.817Z,8
2017-12-05T15:25:02.601Z,8
2017-12-05T15:30:01.548Z,8
2017-12-05T15:35:01.652Z,8
2017-12-05T15:40:01.764Z,8
2017-12-05T15:45:01.908Z,8
2017-12-05T15:50:02.300Z,8
2017-12-05T15:55:01.677Z,8
2017-12-05T16:00:01.787Z,8
2017-12-05T16:05:01.276Z,8
2017-12-05T16:10:01.644Z,8
2017-12-05T16:15:01.908Z,8
2017-12-05T16:20:01.893Z,8
2017-12-05T16:25:01.718Z,8
2017-12-05T16:30:02.447Z,8
2017-12-05T16:35:01.302Z,8
2017-12-05T16:40:02.040Z,8
2017-12-05T16:45:01.312Z,8
2017-12-05T16:50:01.828Z,8
2017-12-05T16:55:01.452Z,8
2017-12-05T17:00:02.159Z,8
2017-12-05T17:05:02.038Z,8
2017-12-05T17:10:01.641Z,8
2017-12-05T17:15:01.863Z,8
2017-12-05T17:20:02.047Z,8
2017-12-05T17:25:02.298Z,8
2017-12-05T17:30:01.439Z,8
2017-12-05T17:35:01.303Z,8
2017-12-05T17:40:01.392Z,8
2017-12-05T17:45:02.123Z,8
2017-12-05T17:50:01.385Z,8
2017-12-05T17:55:01.631Z,8
2017-12-05T18:00:01.368Z,8
2017-12-05T18:05:02.389Z,8
2017-12-05T18:10:02.224Z,8
2017-12-05T18:15:01.865Z,8
2017-12-05T18:20:01.606Z,8
2017-12-05T18:25:02.112Z,8
2017-12-05T18:30:02.040Z,8
2017-12-05T18:35:02.076Z,8
2017-12-05T18:40:02.528Z,8
2017-12-05T18:45:01.928Z,8
2017-12-05T18:50:02.053Z,8
2017-12-05T18:55:01.959Z,8
2017-12-05T19:00:02.327Z,7.6
2017-12-05T19:05:02.316Z,7.6
2017-12-05T19:10:01.488Z,7.5
2017-12-05T19:15:01.930Z,7.5
2017-12-05T19:20:02.232Z,7.5
2017-12-05T19:25:01.957Z,7.4
2017-12-05T19:30:01.239Z,7.4
2017-12-05T19:35:01.379Z,7.4
2017-12-05T19:40:02.228Z,7.4
2017-12-05T19:45:02.231Z,7.2
2017-12-05T19:50:01.675Z,7.2
2017-12-05T19:55:01.547Z,7.2
2017-12-05T20:00:02.221Z,7.2
2017-12-05T20:05:01.886Z,7.2
2017-12-05T20:10:02.279Z,7.2
2017-12-05T20:15:01.458Z,7.2
2017-12-05T20:20:02.075Z,7.2
2017-12-05T20:25:01.440Z,7.2
2017-12-05T20:30:01.812Z,7.3
2017-12-05T20:35:02.649Z,7.3
2017-12-05T20:40:01.995Z,7.2
2017-12-05T20:45:01.804Z,7.2
2017-12-05T20:50:01.719Z,7.2
2017-12-05T20:55:01.864Z,7.2
2017-12-05T21:00:02.076Z,7.3
2017-12-05T21:05:01.728Z,7.3
2017-12-05T21:10:02.707Z,7.3
2017-12-05T21:15:02.650Z,7.3
2017-12-05T21:20:01.479Z,7.3
2017-12-05T21:25:01.695Z,7.3
2017-12-05T21:30:01.625Z,7.3
2017-12-05T21:35:01.227Z,7.3
2017-12-05T21:40:02.215Z,7.2
2017-12-05T21:45:02.084Z,7.1
2017-12-05T21:50:01.234Z,7.1
2017-12-05T21:55:01.865Z,7.1
2017-12-05T22:00:02.460Z,7.1
2017-12-05T22:05:01.839Z,7.1
2017-12-05T22:10:01.620Z,7.1
2017-12-05T22:15:01.513Z,7
2017-12-05T22:20:01.909Z,7
2017-12-05T22:25:02.127Z,7
2017-12-05T22:30:01.484Z,7
2017-12-05T22:35:02.420Z,7
2017-12-05T22:40:01.911Z,7
2017-12-05T22:45:01.885Z,7
2017-12-05T22:50:02.466Z,7
2017-12-05T22:55:01.390Z,7
2017-12-05T23:00:01.560Z,7
2017-12-05T23:05:01.360Z,7
2017-12-05T23:10:02.415Z,7
2017-12-05T23:15:01.387Z,7
2017-12-05T23:20:01.637Z,7
2017-12-05T23:25:02.475Z,7
2017-12-05T23:30:01.687Z,7
2017-12-05T23:35:01.450Z,7
2017-12-05T23:40:01.327Z,7
2017-12-05T23:45:02.254Z,7
2017-12-05T23:50:01.512Z,7
2017-12-05T23:55:02.055Z,7
